createdAt,value
2019-04-11T00:04:03.982Z,78.07
2019-04-11T00:06:43.743Z,83.80
2019-04-11T00:09:24.870Z,79.23
2019-04-11T00:12:06.300Z,82.83
2019-04-11T00:14:46.988Z,82.50
2019-04-11T00:17:27.984Z,82.47
2019-04-11T00:20:09.616Z,87.70
2019-04-11T00:22:50.117Z,86.10
2019-04-11T00:25:19.754Z,82.27
2019-04-11T00:31:00.833Z,85.77
2019-04-11T00:33:42.643Z,86.33
2019-04-11T00:36:22.473Z,90.37
2019-04-11T00:39:05.573Z,88.37
2019-04-11T00:41:46.042Z,87.33
2019-04-11T00:44:27.116Z,87.83
2019-04-11T00:47:07.011Z,82.83
2019-04-11T00:49:46.950Z,89.77
2019-04-11T00:52:27.488Z,85.23
2019-04-11T00:55:08.144Z,89.13
2019-04-11T00:57:48.131Z,91.20
2019-04-11T01:00:29.068Z,85.67
2019-04-11T01:03:09.729Z,86.17
2019-04-11T01:05:50.181Z,85.07
2019-04-11T01:08:31.288Z,86.43
2019-04-11T01:11:11.982Z,88.90
2019-04-11T01:13:55.311Z,87.57
2019-04-11T01:19:43.767Z,82.73
2019-04-11T01:22:24.394Z,83.57
2019-04-11T01:25:04.601Z,88.37
2019-04-11T01:27:45.583Z,85.73
2019-04-11T01:30:33.250Z,86.90
2019-04-11T01:33:15.746Z,88.80
2019-04-11T01:35:57.396Z,82.53
2019-04-11T01:38:42.178Z,82.63
2019-04-11T01:41:22.506Z,82.57
2019-04-11T01:44:05.318Z,84.00
2019-04-11T01:46:44.475Z,83.67
2019-04-11T01:49:24.339Z,84.93
2019-04-11T01:52:05.037Z,80.50
2019-04-11T01:54:45.924Z,88.53
2019-04-11T01:57:25.858Z,87.97
2019-04-11T02:00:09.400Z,86.90
2019-04-11T02:09:01.913Z,84.33
2019-04-11T02:11:42.557Z,83.83
2019-04-11T02:14:24.126Z,86.87
2019-04-11T02:17:04.366Z,82.57
2019-04-11T02:19:44.762Z,86.43
2019-04-11T02:22:43.867Z,87.63
2019-04-11T02:25:42.973Z,83.93
2019-04-11T02:28:22.776Z,83.37
2019-04-11T02:31:04.824Z,80.83
2019-04-11T02:33:46.761Z,84.03
2019-04-11T02:36:29.101Z,81.27
2019-04-11T02:39:12.893Z,80.57
2019-04-11T02:41:52.706Z,75.60
2019-04-11T02:44:52.408Z,84.27
2019-04-11T02:47:21.791Z,79.90
2019-04-11T02:49:57.251Z,78.27
2019-04-11T02:52:38.517Z,76.90
2019-04-11T02:55:21.046Z,75.67
2019-04-11T02:58:01.789Z,77.20
2019-04-11T03:00:44.937Z,73.80
2019-04-11T03:03:25.480Z,77.07
2019-04-11T03:05:53.783Z,74.67
2019-04-11T03:08:43.575Z,75.40
2019-04-11T03:11:26.081Z,74.87
2019-04-11T03:14:07.690Z,76.30
2019-04-11T03:16:59.008Z,75.43
2019-04-11T03:19:44.055Z,76.80
2019-04-11T03:22:13.963Z,76.83
2019-04-11T03:24:55.409Z,74.33
2019-04-11T03:27:37.651Z,77.10
2019-04-11T03:30:42.382Z,74.90
2019-04-11T03:36:36.590Z,73.57
2019-04-11T03:38:58.811Z,76.90
2019-04-11T03:41:32.880Z,72.83
2019-04-11T03:44:06.573Z,76.57
2019-04-11T03:46:52.753Z,73.27
2019-04-11T03:49:32.898Z,76.43
2019-04-11T03:52:05.731Z,70.43
2019-04-11T03:54:47.505Z,70.63
2019-04-11T03:57:29.788Z,74.07
2019-04-11T04:00:10.260Z,77.43
2019-04-11T04:02:52.539Z,70.27
2019-04-11T04:05:36.518Z,76.13
2019-04-11T04:08:14.654Z,72.83
2019-04-11T04:11:14.955Z,51.00
2019-04-11T04:14:17.173Z,49.87
2019-04-11T04:17:17.091Z,47.73
2019-04-11T04:23:08.133Z,48.80
2019-04-11T04:25:51.276Z,51.93
2019-04-11T04:28:33.334Z,54.93
2019-04-11T04:31:14.138Z,51.57
2019-04-11T04:33:55.387Z,53.80
2019-04-11T04:36:35.971Z,53.40
2019-04-11T04:39:17.286Z,54.90
2019-04-11T04:42:05.841Z,53.77
2019-04-11T04:44:40.383Z,55.17
2019-04-11T04:47:32.628Z,58.00
2019-04-11T04:50:06.188Z,58.17
2019-04-11T04:52:46.798Z,58.23
2019-04-11T04:55:28.562Z,61.80
2019-04-11T04:58:09.114Z,60.70
2019-04-11T05:00:51.967Z,63.63
2019-04-11T05:03:32.049Z,57.40
2019-04-11T05:06:14.031Z,62.60
2019-04-11T05:08:55.866Z,61.63
2019-04-11T05:11:38.119Z,59.37
2019-04-11T05:14:18.904Z,58.13
2019-04-11T05:16:58.620Z,59.90
2019-04-11T05:19:38.642Z,61.07
2019-04-11T05:22:20.249Z,59.53
2019-04-11T05:25:03.141Z,59.97
2019-04-11T05:27:40.354Z,59.63
2019-04-11T05:30:27.425Z,55.00
2019-04-11T05:33:07.705Z,53.63
2019-04-11T05:35:48.043Z,55.23
2019-04-11T05:38:27.883Z,56.63
2019-04-11T05:41:12.091Z,56.57
2019-04-11T05:46:55.705Z,53.40
2019-04-11T05:52:36.739Z,54.53
2019-04-11T05:55:17.676Z,55.77
2019-04-11T05:57:58.700Z,53.67
2019-04-11T06:00:46.932Z,56.53
2019-04-11T06:03:28.147Z,54.40
2019-04-11T06:06:24.643Z,49.47
2019-04-11T06:09:11.735Z,51.60
2019-04-11T06:12:11.636Z,51.03
2019-04-11T06:14:44.452Z,47.50
2019-04-11T06:17:32.351Z,52.70
2019-04-11T06:20:33.442Z,49.60
2019-04-11T06:23:33.606Z,49.50
2019-04-11T06:26:32.705Z,49.67
2019-04-11T06:29:26.520Z,45.73
2019-04-11T06:32:24.885Z,48.63
2019-04-11T06:35:11.496Z,47.73
2019-04-11T06:38:12.223Z,42.37
2019-04-11T06:50:17.866Z,45.83
2019-04-11T06:58:47.832Z,38.50
2019-04-11T07:01:30.061Z,41.17
2019-04-11T07:07:00.231Z,39.40
2019-04-11T07:10:00.085Z,39.63
2019-04-11T07:12:49.363Z,38.47
2019-04-11T07:15:35.565Z,38.83
2019-04-11T07:18:35.715Z,40.77
2019-04-11T07:21:17.068Z,39.73
2019-04-11T07:24:16.665Z,37.20
2019-04-11T07:27:01.692Z,38.60
2019-04-11T07:30:05.170Z,43.03
2019-04-11T07:32:45.735Z,39.27
2019-04-11T07:35:51.270Z,39.17
2019-04-11T07:38:38.828Z,39.70
2019-04-11T07:41:39.643Z,41.57
2019-04-11T07:47:25.235Z,39.73
2019-04-11T07:50:05.741Z,40.37
2019-04-11T07:52:56.081Z,40.93
2019-04-11T07:55:38.693Z,39.83
2019-04-11T07:58:28.608Z,39.00
2019-04-11T08:04:45.230Z,41.80
2019-04-11T08:14:00.142Z,30.97
2019-04-11T08:16:59.553Z,30.47
2019-04-11T08:19:59.598Z,32.20
2019-04-11T08:22:43.249Z,34.10
2019-04-11T08:31:43.027Z,36.33
2019-04-11T08:34:23.659Z,33.23
2019-04-11T08:37:23.358Z,33.83
2019-04-11T08:40:03.925Z,36.33
2019-04-11T08:43:10.800Z,36.30
2019-04-11T08:45:56.242Z,35.40
2019-04-11T08:48:39.322Z,35.20
2019-04-11T08:51:20.055Z,31.90
2019-04-11T08:54:22.276Z,32.83
2019-04-11T08:57:03.255Z,32.47
2019-04-11T08:59:51.441Z,33.17
2019-04-11T09:02:35.503Z,31.10
2019-04-11T09:05:35.438Z,33.27
2019-04-11T09:08:23.435Z,33.83
2019-04-11T09:11:24.637Z,33.40
2019-04-11T09:14:26.320Z,29.90
2019-04-11T09:17:14.854Z,30.33
2019-04-11T09:20:15.588Z,30.63
2019-04-11T09:23:07.133Z,33.03
2019-04-11T09:28:55.021Z,29.43
2019-04-11T09:37:52.323Z,30.47
2019-04-11T09:40:52.129Z,30.23
2019-04-11T09:43:33.820Z,34.70
2019-04-11T09:46:32.393Z,28.30
2019-04-11T09:52:33.724Z,30.53
2019-04-11T09:55:33.235Z,28.83
2019-04-11T09:58:33.731Z,33.10
2019-04-11T10:01:33.128Z,29.50
2019-04-11T10:04:14.282Z,32.33
2019-04-11T10:07:20.192Z,28.23
2019-04-11T10:10:19.600Z,31.07
2019-04-11T10:13:18.797Z,34.00
2019-04-11T10:16:24.202Z,31.77
2019-04-11T10:22:22.740Z,30.37
2019-04-11T10:25:08.204Z,33.17
2019-04-11T10:28:09.719Z,29.87
2019-04-11T10:31:10.466Z,30.07
2019-04-11T10:34:11.131Z,30.40
2019-04-11T10:37:01.285Z,28.97
2019-04-11T10:40:00.087Z,30.53
2019-04-11T10:42:42.488Z,29.90
2019-04-11T10:45:31.164Z,29.93
2019-04-11T10:48:11.720Z,32.43
2019-04-11T10:51:11.250Z,31.53
2019-04-11T10:53:53.332Z,30.97
2019-04-11T10:56:43.544Z,29.93
2019-04-11T10:59:27.829Z,32.30
2019-04-11T11:02:27.485Z,32.03
2019-04-11T11:05:07.410Z,28.03
2019-04-11T11:07:47.203Z,29.03
2019-04-11T11:10:29.299Z,30.53
2019-04-11T11:13:29.846Z,29.67
2019-04-11T11:16:11.815Z,26.53
2019-04-11T11:19:44.175Z,27.37
2019-04-11T11:22:00.425Z,27.97
2019-04-11T11:25:00.141Z,29.63
2019-04-11T11:27:41.613Z,27.10
2019-04-11T11:30:47.417Z,31.07
2019-04-11T11:33:29.983Z,31.90
2019-04-11T11:36:37.622Z,27.70
2019-04-11T11:39:26.903Z,32.53
2019-04-11T11:42:28.297Z,26.17
2019-04-11T11:45:19.908Z,32.60
2019-04-11T11:48:09.954Z,32.60
2019-04-11T11:50:49.157Z,28.03
2019-04-11T11:53:35.804Z,29.67
2019-04-11T11:56:22.800Z,30.63
2019-04-11T11:59:23.012Z,32.57
2019-04-11T12:02:32.730Z,31.97
2019-04-11T12:05:18.050Z,33.30
2019-04-11T12:08:13.612Z,32.20
2019-04-11T12:10:55.559Z,30.83
2019-04-11T12:13:55.805Z,31.07
2019-04-11T12:17:00.311Z,32.70
2019-04-11T12:20:04.813Z,33.00
2019-04-11T12:22:40.724Z,32.30
2019-04-11T12:25:25.103Z,28.83
2019-04-11T12:28:15.334Z,31.17
2019-04-11T12:31:01.444Z,29.07
2019-04-11T12:34:01.695Z,30.20
2019-04-11T12:36:46.985Z,33.40
2019-04-11T12:39:44.721Z,32.13
2019-04-11T12:42:28.128Z,32.63
2019-04-11T12:45:30.091Z,33.73
2019-04-11T12:48:12.195Z,33.20
2019-04-11T12:51:12.467Z,35.13
2019-04-11T12:53:52.207Z,34.67
2019-04-11T12:56:51.770Z,37.77
2019-04-11T12:59:31.491Z,35.33
2019-04-11T13:02:27.455Z,37.43
2019-04-11T13:05:09.830Z,35.93
2019-04-11T13:08:09.521Z,35.27
2019-04-11T13:10:49.636Z,38.27
2019-04-11T13:13:37.463Z,37.47
2019-04-11T13:16:17.598Z,36.67
2019-04-11T13:19:10.992Z,37.07
2019-04-11T13:21:56.751Z,37.90
2019-04-11T13:24:56.257Z,35.67
2019-04-11T13:27:42.588Z,36.50
2019-04-11T13:30:41.647Z,42.47
2019-04-11T13:33:23.815Z,37.30
2019-04-11T13:36:17.008Z,36.27
2019-04-11T13:38:57.435Z,32.00
2019-04-11T13:44:41.488Z,33.37
2019-04-11T13:47:40.961Z,34.57
2019-04-11T13:50:20.775Z,30.67
2019-04-11T13:56:30.350Z,31.47
2019-04-11T13:59:29.789Z,31.70
2019-04-11T14:02:18.067Z,30.87
2019-04-11T14:04:57.927Z,31.90
2019-04-11T14:07:40.307Z,32.23
2019-04-11T14:10:20.176Z,31.70
2019-04-11T14:13:01.053Z,34.37
2019-04-11T14:15:43.424Z,32.97
2019-04-11T14:18:36.816Z,32.10
2019-04-11T14:21:18.513Z,36.50
2019-04-11T14:27:02.183Z,32.87
2019-04-11T14:29:56.352Z,33.53
2019-04-11T14:32:40.189Z,35.93
2019-04-11T14:35:39.518Z,32.80
2019-04-11T14:38:21.892Z,36.73
2019-04-11T14:41:22.313Z,37.30
2019-04-11T14:44:03.143Z,37.60
2019-04-11T14:47:06.675Z,36.43
2019-04-11T14:49:47.805Z,37.93
2019-04-11T14:52:47.267Z,39.00
2019-04-11T14:55:27.830Z,38.37
2019-04-11T14:58:27.245Z,40.70
2019-04-11T15:01:10.519Z,40.03
2019-04-11T15:04:13.400Z,39.47
2019-04-11T15:06:52.995Z,37.13
2019-04-11T15:09:58.683Z,42.47
2019-04-11T15:12:38.242Z,39.80
2019-04-11T15:15:37.761Z,40.10
2019-04-11T15:18:19.296Z,39.63
2019-04-11T15:21:18.536Z,43.13
2019-04-11T15:23:58.188Z,40.23
2019-04-11T15:26:57.662Z,41.20
2019-04-11T15:29:38.829Z,40.20
2019-04-11T15:32:37.888Z,40.70
2019-04-11T15:35:24.984Z,40.30
2019-04-11T15:38:24.443Z,40.13
2019-04-11T15:41:05.747Z,42.97
2019-04-11T15:44:08.566Z,42.70
2019-04-11T15:46:48.561Z,45.20
2019-04-11T15:49:48.104Z,40.17
2019-04-11T15:52:27.925Z,45.00
2019-04-11T15:55:37.532Z,42.93
2019-04-11T15:58:15.476Z,43.93
2019-04-11T16:01:08.039Z,44.10
2019-04-11T16:03:48.861Z,45.03
2019-04-11T16:06:38.899Z,45.57
2019-04-11T16:09:24.864Z,45.47
2019-04-11T16:12:16.391Z,41.63
2019-04-11T16:14:44.220Z,44.73
2019-04-11T16:17:50.671Z,41.90
2019-04-11T16:20:37.648Z,43.40
2019-04-11T16:23:26.270Z,44.17
2019-04-11T16:26:09.144Z,44.30
2019-04-11T16:29:09.198Z,43.00
2019-04-11T16:31:48.919Z,41.07
2019-04-11T16:34:51.566Z,42.47
2019-04-11T16:37:30.736Z,45.77
2019-04-11T16:40:30.085Z,45.63
2019-04-11T16:43:10.317Z,47.47
2019-04-11T16:46:09.993Z,44.80
2019-04-11T16:48:50.152Z,45.07
2019-04-11T16:51:31.364Z,46.30
2019-04-11T16:54:11.718Z,45.43
2019-04-11T16:56:51.678Z,47.63
2019-04-11T16:59:31.889Z,43.97
2019-04-11T17:02:12.166Z,44.23
2019-04-11T17:04:55.615Z,43.90
2019-04-11T17:10:50.989Z,48.00
2019-04-11T17:13:32.293Z,50.30
2019-04-11T17:16:15.380Z,50.30
2019-04-11T17:18:55.296Z,45.23
2019-04-11T17:21:43.191Z,44.00
2019-04-11T17:24:17.896Z,47.57
2019-04-11T17:26:58.032Z,47.73
2019-04-11T17:29:38.159Z,45.43
2019-04-11T17:32:18.112Z,44.97
2019-04-11T17:35:01.322Z,45.67
2019-04-11T17:37:27.715Z,47.97
2019-04-11T17:40:14.891Z,48.03
2019-04-11T17:43:01.892Z,47.77
2019-04-11T17:45:41.935Z,45.47
2019-04-11T17:48:21.780Z,46.33
2019-04-11T17:50:49.425Z,46.73
2019-04-11T17:53:36.432Z,50.90
2019-04-11T17:56:25.344Z,50.17
2019-04-11T17:59:05.280Z,46.20
2019-04-11T18:01:45.237Z,48.17
2019-04-11T18:04:25.299Z,48.57
2019-04-11T18:07:05.445Z,48.10
2019-04-11T18:09:45.404Z,48.27
2019-04-11T18:12:26.759Z,47.77
2019-04-11T18:15:07.585Z,47.70
2019-04-11T18:17:48.030Z,52.17
2019-04-11T18:20:27.988Z,50.50
2019-04-11T18:23:07.959Z,47.83
2019-04-11T18:25:48.907Z,48.17
2019-04-11T18:28:29.864Z,52.33
2019-04-11T18:31:10.212Z,48.93
2019-04-11T18:33:50.223Z,52.27
2019-04-11T18:39:28.564Z,47.87
2019-04-11T18:42:08.839Z,51.07
2019-04-11T18:44:48.915Z,52.30
2019-04-11T18:47:16.555Z,49.80
2019-04-11T18:50:25.019Z,48.57
2019-04-11T18:53:12.039Z,54.73
2019-04-11T18:55:54.159Z,49.17
2019-04-11T18:58:34.655Z,50.80
2019-04-11T19:01:14.663Z,50.43
2019-04-11T19:03:54.545Z,52.93
2019-04-11T19:06:34.589Z,54.70
2019-04-11T19:09:15.624Z,50.43
2019-04-11T19:11:55.830Z,51.03
2019-04-11T19:17:37.288Z,52.53
2019-04-11T19:20:19.248Z,52.13
2019-04-11T19:22:59.120Z,53.57
2019-04-11T19:25:44.466Z,49.80
2019-04-11T19:28:24.950Z,51.87
2019-04-11T19:31:04.505Z,51.27
2019-04-11T19:33:34.179Z,52.23
2019-04-11T19:36:20.955Z,49.57
2019-04-11T19:39:08.048Z,53.97
2019-04-11T19:41:55.072Z,48.10
2019-04-11T19:44:35.243Z,51.17
2019-04-11T19:47:15.712Z,58.10
2019-04-11T19:49:58.545Z,55.37
2019-04-11T19:52:45.162Z,53.97
2019-04-11T19:58:36.695Z,54.37
2019-04-11T20:01:17.923Z,51.60
2019-04-11T20:03:57.871Z,51.57
2019-04-11T20:06:37.927Z,53.33
2019-04-11T20:09:18.007Z,50.67
2019-04-11T20:11:45.719Z,54.00
2019-04-11T20:14:34.858Z,50.53
2019-04-11T20:17:22.005Z,52.03
2019-04-11T20:20:06.707Z,52.47
2019-04-11T20:22:43.909Z,51.50
2019-04-11T20:25:24.009Z,51.97
2019-04-11T20:28:04.076Z,50.97
2019-04-11T20:30:44.349Z,50.87
2019-04-11T20:33:27.196Z,49.37
2019-04-11T20:36:08.105Z,52.37
2019-04-11T20:38:48.931Z,55.00
2019-04-11T20:41:16.543Z,51.47
2019-04-11T20:44:03.584Z,50.13
2019-04-11T20:46:50.621Z,55.93
2019-04-11T20:49:32.354Z,53.07
2019-04-11T20:57:57.481Z,52.87
2019-04-11T21:00:50.854Z,50.83
2019-04-11T21:03:29.915Z,52.63
2019-04-11T21:06:08.918Z,52.97
2019-04-11T21:08:36.795Z,53.50
2019-04-11T21:11:27.242Z,50.70
2019-04-11T21:14:07.706Z,53.70
2019-04-11T21:16:47.550Z,53.40
2019-04-11T21:19:15.586Z,52.60
2019-04-11T21:22:02.565Z,56.37
2019-04-11T21:24:43.179Z,56.33
2019-04-11T21:27:23.150Z,52.80
2019-04-11T21:30:03.274Z,56.03
2019-04-11T21:32:43.313Z,53.20
2019-04-11T21:35:23.295Z,52.63
2019-04-11T21:38:03.418Z,52.73
2019-04-11T21:40:43.534Z,54.37
2019-04-11T21:43:23.595Z,54.00
2019-04-11T21:46:04.092Z,53.87
2019-04-11T21:48:46.030Z,50.87
2019-04-11T21:51:26.470Z,48.90
2019-04-11T21:54:06.698Z,49.80
2019-04-11T21:56:49.623Z,51.80
2019-04-11T21:59:28.966Z,51.00
2019-04-11T22:02:13.397Z,47.87
2019-04-11T22:04:41.228Z,53.23
2019-04-11T22:07:30.781Z,49.63
2019-04-11T22:10:10.346Z,48.83
2019-04-11T22:12:50.355Z,47.77
2019-04-11T22:15:30.325Z,51.70
2019-04-11T22:18:10.217Z,51.67
2019-04-11T22:20:50.390Z,56.43
2019-04-11T22:23:30.075Z,54.63
2019-04-11T22:26:10.206Z,57.50
2019-04-11T22:32:03.394Z,59.33
2019-04-11T22:34:45.391Z,62.03
2019-04-11T22:37:27.719Z,58.43
2019-04-11T22:40:07.866Z,58.93
2019-04-11T22:42:48.273Z,56.67
2019-04-11T22:45:16.022Z,64.27
2019-04-11T22:48:03.025Z,62.87
2019-04-11T22:50:50.045Z,58.37
2019-04-11T22:53:30.354Z,66.80
2019-04-11T22:56:11.803Z,61.23
2019-04-11T22:58:52.591Z,63.00
2019-04-11T23:01:33.229Z,58.93
2019-04-11T23:04:16.595Z,61.50
2019-04-11T23:06:55.374Z,58.93
2019-04-11T23:09:35.377Z,61.83
2019-04-11T23:12:15.851Z,65.50
2019-04-11T23:14:56.375Z,57.87
2019-04-11T23:17:38.017Z,58.50
2019-04-11T23:20:18.529Z,62.97
2019-04-11T23:22:46.268Z,62.07
2019-04-11T23:25:33.445Z,61.93
2019-04-11T23:28:15.820Z,60.47
2019-04-11T23:30:55.909Z,62.37
2019-04-11T23:33:36.109Z,58.47
2019-04-11T23:36:18.781Z,61.37
2019-04-11T23:38:58.373Z,60.13
2019-04-11T23:41:40.236Z,58.70
2019-04-11T23:44:20.952Z,58.20
2019-04-11T23:46:59.125Z,60.97
2019-04-11T23:49:46.177Z,65.77
2019-04-11T23:52:15.397Z,62.97
2019-04-11T23:55:02.481Z,62.67
2019-04-11T23:57:49.797Z,58.63
